createdAt,value
2018-04-22T00:00:03.278Z,101452.19
2018-04-22T00:02:29.081Z,101454.13
2018-04-22T00:04:55.764Z,101456.55
2018-04-22T00:07:21.604Z,101450.07
2018-04-22T00:09:47.418Z,101450.56
2018-04-22T00:12:13.216Z,101450.34
2018-04-22T00:14:39.655Z,101443.79
2018-04-22T00:17:05.452Z,101443.99
2018-04-22T00:19:32.113Z,101448.52
2018-04-22T00:21:57.918Z,101446.58
2018-04-22T00:24:24.714Z,101444.98
2018-04-22T00:26:50.521Z,101443.50
2018-04-22T00:29:16.352Z,101439.77
2018-04-22T00:31:42.156Z,101442.73
2018-04-22T00:34:07.993Z,101438.55
2018-04-22T00:36:33.796Z,101434.26
2018-04-22T00:39:00.603Z,101439.67
2018-04-22T00:41:27.457Z,101435.97
2018-04-22T00:43:54.228Z,101440.63
2018-04-22T00:46:20.057Z,101438.20
2018-04-22T00:48:45.858Z,101435.55
2018-04-22T00:51:11.726Z,101436.98
2018-04-22T00:53:43.766Z,101427.14
2018-04-22T00:56:09.581Z,101418.44
2018-04-22T00:58:35.380Z,101420.80
2018-04-22T01:01:01.185Z,101426.16
2018-04-22T01:03:26.983Z,101423.80
2018-04-22T01:05:52.825Z,101434.02
2018-04-22T01:08:18.634Z,101429.21
2018-04-22T01:10:44.441Z,101427.95
2018-04-22T01:13:10.255Z,101427.84
2018-04-22T01:15:36.072Z,101424.32
2018-04-22T01:18:01.902Z,101429.64
2018-04-22T01:20:27.768Z,101429.70
2018-04-22T01:22:53.573Z,101437.23
2018-04-22T01:25:19.416Z,101432.20
2018-04-22T01:27:45.272Z,101433.94
2018-04-22T01:30:11.077Z,101428.94
2018-04-22T01:32:36.886Z,101430.05
2018-04-22T01:35:02.692Z,101436.41
2018-04-22T01:37:28.506Z,101427.91
2018-04-22T01:39:54.337Z,101432.22
2018-04-22T01:42:20.177Z,101428.96
2018-04-22T01:44:45.982Z,101426.42
2018-04-22T01:47:11.816Z,101430.14
2018-04-22T01:49:37.660Z,101421.14
2018-04-22T01:52:03.510Z,101423.50
2018-04-22T01:54:29.321Z,101419.50
2018-04-22T01:56:55.151Z,101418.28
2018-04-22T01:59:20.959Z,101415.65
2018-04-22T02:01:46.761Z,101412.48
2018-04-22T02:04:12.673Z,101411.42
2018-04-22T02:06:38.474Z,101407.56
2018-04-22T02:09:04.296Z,101413.33
2018-04-22T02:11:30.099Z,101408.53
2018-04-22T02:13:55.985Z,101409.14
2018-04-22T02:16:21.792Z,101409.48
2018-04-22T02:18:47.632Z,101403.48
2018-04-22T02:21:13.437Z,101405.80
2018-04-22T02:23:39.244Z,101402.94
2018-04-22T02:26:05.045Z,101404.16
2018-04-22T02:28:30.849Z,101405.17
2018-04-22T02:30:56.657Z,101406.58
2018-04-22T02:33:22.466Z,101395.72
2018-04-22T02:35:48.274Z,101392.92
2018-04-22T02:38:14.084Z,101396.98
2018-04-22T02:40:39.895Z,101392.21
2018-04-22T02:43:05.729Z,101391.52
2018-04-22T02:45:31.536Z,101394.50
2018-04-22T02:47:57.376Z,101387.21
2018-04-22T02:50:23.180Z,101376.48
2018-04-22T02:52:48.984Z,101376.48
2018-04-22T02:55:14.804Z,101376.52
2018-04-22T02:57:40.617Z,101377.67
2018-04-22T03:00:06.424Z,101376.69
2018-04-22T03:02:32.228Z,101372.45
2018-04-22T03:04:58.093Z,101370.41
2018-04-22T03:07:23.896Z,101374.35
2018-04-22T03:09:49.702Z,101369.25
2018-04-22T03:12:15.509Z,101375.63
2018-04-22T03:14:41.313Z,101368.28
2018-04-22T03:17:07.127Z,101362.01
2018-04-22T03:19:32.968Z,101364.25
2018-04-22T03:21:58.795Z,101364.67
2018-04-22T03:24:24.632Z,101355.64
2018-04-22T03:26:50.433Z,101356.00
2018-04-22T03:29:17.314Z,101359.48
2018-04-22T03:31:43.149Z,101356.20
2018-04-22T03:34:08.989Z,101355.78
2018-04-22T03:36:34.794Z,101356.27
2018-04-22T03:39:00.633Z,101352.30
2018-04-22T03:41:26.473Z,101352.52
2018-04-22T03:43:52.308Z,101352.59
2018-04-22T03:46:18.140Z,101349.11
2018-04-22T03:48:43.975Z,101356.73
2018-04-22T03:51:09.793Z,101352.37
2018-04-22T03:53:35.602Z,101352.94
2018-04-22T03:56:01.445Z,101350.97
2018-04-22T03:58:27.260Z,101354.27
2018-04-22T04:00:53.060Z,101353.06
2018-04-22T04:03:18.869Z,101352.16
2018-04-22T04:05:44.706Z,101353.30
2018-04-22T04:08:10.641Z,101355.53
2018-04-22T04:10:36.457Z,101346.73
2018-04-22T04:13:02.260Z,101344.57
2018-04-22T04:15:28.093Z,101349.45
2018-04-22T04:17:57.976Z,101355.53
2018-04-22T04:20:30.096Z,101347.16
2018-04-22T04:22:56.056Z,101349.22
2018-04-22T04:25:39.027Z,101347.27
2018-04-22T04:28:04.870Z,101352.39
2018-04-22T04:30:30.677Z,101351.69
2018-04-22T04:32:56.504Z,101356.79
2018-04-22T04:35:22.336Z,101356.91
2018-04-22T04:37:48.147Z,101354.73
2018-04-22T04:40:13.976Z,101353.37
2018-04-22T04:42:39.867Z,101355.47
2018-04-22T04:45:05.682Z,101353.55
2018-04-22T04:47:31.537Z,101349.92
2018-04-22T04:49:57.396Z,101356.95
2018-04-22T04:52:23.204Z,101352.10
2018-04-22T04:54:49.024Z,101353.93
2018-04-22T04:57:14.829Z,101355.61
2018-04-22T04:59:40.648Z,101353.70
2018-04-22T05:02:06.455Z,101349.50
2018-04-22T05:04:32.312Z,101352.23
2018-04-22T05:06:58.161Z,101359.02
2018-04-22T05:09:23.969Z,101357.95
2018-04-22T05:11:49.806Z,101351.60
2018-04-22T05:14:15.616Z,101357.31
2018-04-22T05:16:41.425Z,101359.06
2018-04-22T05:19:07.225Z,101351.62
2018-04-22T05:21:33.036Z,101357.81
2018-04-22T05:23:58.844Z,101359.42
2018-04-22T05:26:24.644Z,101355.81
2018-04-22T05:28:50.481Z,101344.93
2018-04-22T05:31:16.379Z,101344.80
2018-04-22T05:33:42.172Z,101354.07
2018-04-22T05:36:07.978Z,101345.54
2018-04-22T05:38:33.780Z,101347.03
2018-04-22T05:40:59.585Z,101341.56
2018-04-22T05:43:25.395Z,101342.58
2018-04-22T05:45:51.208Z,101333.73
2018-04-22T05:48:17.066Z,101333.08
2018-04-22T05:50:42.931Z,101335.73
2018-04-22T05:53:08.772Z,101335.05
2018-04-22T05:55:34.633Z,101336.34
2018-04-22T05:58:00.439Z,101334.76
2018-04-22T06:00:26.273Z,101330.02
2018-04-22T06:02:52.077Z,101328.76
2018-04-22T06:05:17.917Z,101326.30
2018-04-22T06:07:43.834Z,101322.27
2018-04-22T06:10:09.642Z,101324.23
2018-04-22T06:12:35.472Z,101321.81
2018-04-22T06:15:01.286Z,101319.14
2018-04-22T06:17:27.121Z,101320.53
2018-04-22T06:19:52.953Z,101319.08
2018-04-22T06:22:18.785Z,101323.95
2018-04-22T06:24:44.612Z,101323.53
2018-04-22T06:27:10.447Z,101322.15
2018-04-22T06:29:36.280Z,101325.25
2018-04-22T06:32:02.085Z,101320.92
2018-04-22T06:34:27.940Z,101317.05
2018-04-22T06:36:53.815Z,101309.67
2018-04-22T06:39:19.622Z,101308.45
2018-04-22T06:41:45.473Z,101304.19
2018-04-22T06:44:11.286Z,101300.99
2018-04-22T06:46:37.097Z,101299.25
2018-04-22T06:49:02.913Z,101301.11
2018-04-22T06:51:28.756Z,101297.26
2018-04-22T06:53:54.650Z,101297.03
2018-04-22T06:56:20.457Z,101291.67
2018-04-22T06:58:46.320Z,101287.33
2018-04-22T07:01:12.116Z,101288.88
2018-04-22T07:03:37.957Z,101290.52
2018-04-22T07:06:03.773Z,101293.28
2018-04-22T07:08:29.580Z,101292.77
2018-04-22T07:10:55.791Z,101283.42
2018-04-22T07:13:21.596Z,101287.45
2018-04-22T07:15:47.440Z,101288.01
2018-04-22T07:18:13.253Z,101294.31
2018-04-22T07:20:39.058Z,101288.88
2018-04-22T07:23:04.872Z,101289.43
2018-04-22T07:25:31.485Z,101288.84
2018-04-22T07:27:57.287Z,101291.84
2018-04-22T07:30:23.088Z,101290.34
2018-04-22T07:32:48.912Z,101289.78
2018-04-22T07:35:14.780Z,101289.02
2018-04-22T07:37:40.705Z,101291.43
2018-04-22T07:40:06.566Z,101296.48
2018-04-22T07:42:32.409Z,101287.33
2018-04-22T07:44:58.229Z,101292.56
2018-04-22T07:47:24.040Z,101293.83
2018-04-22T07:49:49.877Z,101294.25
2018-04-22T07:52:15.701Z,101292.02
2018-04-22T07:54:41.508Z,101289.43
2018-04-22T07:57:07.315Z,101294.55
2018-04-22T07:59:33.120Z,101286.66
2018-04-22T08:01:58.924Z,101286.78
2018-04-22T08:04:24.728Z,101281.41
2018-04-22T08:06:50.553Z,101283.58
2018-04-22T08:09:16.404Z,101282.51
2018-04-22T08:11:42.209Z,101281.38
2018-04-22T08:14:08.058Z,101285.03
2018-04-22T08:16:33.867Z,101277.56
2018-04-22T08:18:59.704Z,101279.09
2018-04-22T08:21:25.512Z,101279.99
2018-04-22T08:23:51.316Z,101278.73
2018-04-22T08:26:17.128Z,101278.34
2018-04-22T08:28:42.933Z,101281.48
2018-04-22T08:31:08.749Z,101283.06
2018-04-22T08:33:34.572Z,101284.74
2018-04-22T08:36:00.380Z,101277.51
2018-04-22T08:38:26.201Z,101275.95
2018-04-22T08:40:52.008Z,101266.81
2018-04-22T08:43:17.816Z,101268.02
2018-04-22T08:45:43.765Z,101267.75
2018-04-22T08:48:09.574Z,101270.30
2018-04-22T08:50:35.394Z,101267.39
2018-04-22T08:53:01.238Z,101256.14
2018-04-22T08:55:27.052Z,101258.54
2018-04-22T08:57:52.900Z,101258.86
2018-04-22T09:00:18.732Z,101256.44
2018-04-22T09:02:44.531Z,101263.28
2018-04-22T09:05:10.332Z,101256.02
2018-04-22T09:07:36.137Z,101248.98
2018-04-22T09:10:01.957Z,101250.30
2018-04-22T09:12:27.917Z,101242.05
2018-04-22T09:14:53.720Z,101232.88
2018-04-22T09:17:19.524Z,101231.14
2018-04-22T09:19:45.332Z,101231.39
2018-04-22T09:22:11.134Z,101229.71
2018-04-22T09:24:36.944Z,101232.58
2018-04-22T09:27:02.748Z,101219.81
2018-04-22T09:29:28.556Z,101208.80
2018-04-22T09:31:54.365Z,101211.03
2018-04-22T09:34:20.169Z,101199.17
2018-04-22T09:36:45.976Z,101199.52
2018-04-22T09:39:11.791Z,101188.81
2018-04-22T09:41:37.601Z,101192.23
2018-04-22T09:44:03.449Z,101182.67
2018-04-22T09:46:29.255Z,101187.42
2018-04-22T09:48:55.065Z,101188.92
2018-04-22T09:51:20.877Z,101173.20
2018-04-22T09:53:46.716Z,101169.98
2018-04-22T09:56:12.549Z,101174.84
2018-04-22T09:58:38.381Z,101173.89
2018-04-22T10:01:04.232Z,101161.23
2018-04-22T10:03:30.130Z,101164.30
2018-04-22T10:06:00.848Z,101160.70
2018-04-22T10:08:26.653Z,101161.59
2018-04-22T10:10:52.624Z,101155.78
2018-04-22T10:13:18.529Z,101148.53
2018-04-22T10:15:44.421Z,101158.71
2018-04-22T10:18:10.229Z,101152.16
2018-04-22T10:20:36.056Z,101143.17
2018-04-22T10:23:01.900Z,101141.25
2018-04-22T10:25:27.713Z,101145.81
2018-04-22T10:27:53.525Z,101144.84
2018-04-22T10:30:19.336Z,101138.84
2018-04-22T10:32:45.169Z,101129.56
2018-04-22T10:35:10.977Z,101127.63
2018-04-22T10:37:36.784Z,101129.92
2018-04-22T10:40:02.623Z,101125.80
2018-04-22T10:42:28.443Z,101121.91
2018-04-22T10:44:54.282Z,101124.38
2018-04-22T10:47:20.180Z,101119.78
2018-04-22T10:49:45.992Z,101116.03
2018-04-22T10:52:11.858Z,101109.21
2018-04-22T10:54:37.664Z,101109.00
2018-04-22T10:57:03.468Z,101108.37
2018-04-22T10:59:29.277Z,101104.51
2018-04-22T11:01:55.089Z,101098.05
2018-04-22T11:04:20.922Z,101095.72
2018-04-22T11:06:46.768Z,101097.95
2018-04-22T11:09:12.692Z,101096.31
2018-04-22T11:11:38.540Z,101096.67
2018-04-22T11:14:04.343Z,101092.58
2018-04-22T11:16:30.253Z,101092.77
2018-04-22T11:18:56.062Z,101094.02
2018-04-22T11:21:21.920Z,101092.69
2018-04-22T11:23:47.733Z,101088.37
2018-04-22T11:26:13.536Z,101085.30
2018-04-22T11:28:39.421Z,101085.96
2018-04-22T11:31:05.249Z,101081.19
2018-04-22T11:33:31.664Z,101081.95
2018-04-22T11:35:57.470Z,101076.59
2018-04-22T11:38:23.291Z,101073.17
2018-04-22T11:40:49.105Z,101074.02
2018-04-22T11:43:14.909Z,101072.09
2018-04-22T11:45:40.714Z,101070.77
2018-04-22T11:48:06.520Z,101070.59
2018-04-22T11:50:32.418Z,101060.69
2018-04-22T11:52:58.231Z,101067.59
2018-04-22T11:55:24.072Z,101055.67
2018-04-22T11:57:49.880Z,101050.86
2018-04-22T12:00:15.709Z,101048.66
2018-04-22T12:02:41.518Z,101052.64
2018-04-22T12:05:07.325Z,101056.23
2018-04-22T12:07:33.137Z,101053.58
2018-04-22T12:09:59.007Z,101052.88
2018-04-22T12:12:24.844Z,101051.07
2018-04-22T12:14:50.650Z,101055.18
2018-04-22T12:17:16.465Z,101045.56
2018-04-22T12:19:42.274Z,101038.66
2018-04-22T12:22:08.080Z,101032.59
2018-04-22T12:24:33.880Z,101039.14
2018-04-22T12:26:59.738Z,101025.61
2018-04-22T12:29:25.676Z,101029.38
2018-04-22T12:31:51.514Z,101024.81
2018-04-22T12:34:17.355Z,101025.06
2018-04-22T12:36:43.160Z,101023.80
2018-04-22T12:39:08.969Z,101019.80
2018-04-22T12:41:34.799Z,101016.83
2018-04-22T12:44:00.656Z,101023.91
2018-04-22T12:46:26.469Z,101016.87
2018-04-22T12:48:52.268Z,101011.53
2018-04-22T12:51:18.077Z,101010.73
2018-04-22T12:53:43.893Z,101007.55
2018-04-22T12:56:09.704Z,101000.06
2018-04-22T12:58:35.540Z,101002.33
2018-04-22T13:01:01.429Z,101001.34
2018-04-22T13:03:27.246Z,100999.19
2018-04-22T13:05:53.056Z,100996.75
2018-04-22T13:08:18.877Z,100993.47
2018-04-22T13:10:44.688Z,100989.14
2018-04-22T13:13:10.497Z,100988.63
2018-04-22T13:15:36.305Z,100986.70
2018-04-22T13:18:02.113Z,100982.77
2018-04-22T13:20:27.929Z,100979.63
2018-04-22T13:22:53.740Z,100979.08
2018-04-22T13:25:19.554Z,100977.33
2018-04-22T13:27:45.365Z,100974.27
2018-04-22T13:30:11.176Z,100966.53
2018-04-22T13:32:37.052Z,100959.88
2018-04-22T13:35:02.856Z,100959.69
2018-04-22T13:37:28.669Z,100958.51
2018-04-22T13:39:54.517Z,100946.38
2018-04-22T13:42:20.433Z,100947.62
2018-04-22T13:44:46.300Z,100941.33
2018-04-22T13:47:12.137Z,100942.89
2018-04-22T13:49:38.010Z,100931.28
2018-04-22T13:52:03.848Z,100928.08
2018-04-22T13:54:29.649Z,100928.56
2018-04-22T13:56:55.461Z,100927.12
2018-04-22T13:59:21.292Z,100926.72
2018-04-22T14:01:47.101Z,100924.24
2018-04-22T14:04:12.905Z,100922.64
2018-04-22T14:06:38.709Z,100914.48
2018-04-22T14:09:04.529Z,100910.82
2018-04-22T14:11:30.365Z,100912.81
2018-04-22T14:13:56.176Z,100905.77
2018-04-22T14:16:22.041Z,100903.81
2018-04-22T14:18:47.848Z,100898.17
2018-04-22T14:21:13.699Z,100904.94
2018-04-22T14:23:39.504Z,100890.44
2018-04-22T14:26:05.349Z,100885.48
2018-04-22T14:28:31.160Z,100885.41
2018-04-22T14:30:57.065Z,100884.64
2018-04-22T14:33:22.868Z,100879.34
2018-04-22T14:35:48.680Z,100878.13
2018-04-22T14:38:14.484Z,100872.83
2018-04-22T14:40:40.285Z,100866.86
2018-04-22T14:43:06.093Z,100871.26
2018-04-22T14:45:38.086Z,100869.70
2018-04-22T14:48:04.872Z,100868.86
2018-04-22T14:50:30.688Z,100864.78
2018-04-22T14:52:56.539Z,100867.91
2018-04-22T14:55:22.344Z,100867.70
2018-04-22T14:57:48.174Z,100861.01
2018-04-22T15:00:14.001Z,100862.89
2018-04-22T15:02:39.815Z,100856.69
2018-04-22T15:05:05.621Z,100856.36
2018-04-22T15:07:31.429Z,100856.04
2018-04-22T15:09:57.249Z,100860.09
2018-04-22T15:12:23.053Z,100856.53
2018-04-22T15:14:48.860Z,100850.59
2018-04-22T15:17:14.709Z,100847.11
2018-04-22T15:19:40.512Z,100849.00
2018-04-22T15:22:06.321Z,100842.30
2018-04-22T15:24:32.141Z,100839.23
2018-04-22T15:26:57.944Z,100836.38
2018-04-22T15:29:23.744Z,100831.00
2018-04-22T15:31:49.549Z,100828.01
2018-04-22T15:34:15.356Z,100826.27
2018-04-22T15:36:41.172Z,100821.38
2018-04-22T15:39:07.974Z,100827.59
2018-04-22T15:41:33.780Z,100815.73
2018-04-22T15:44:01.453Z,100819.50
2018-04-22T15:46:27.527Z,100817.06
2018-04-22T15:48:53.481Z,100816.16
2018-04-22T15:51:19.312Z,100809.87
2018-04-22T15:53:46.205Z,100810.71
2018-04-22T15:56:12.164Z,100798.93
2018-04-22T15:58:37.972Z,100798.24
2018-04-22T16:01:03.781Z,100793.36
2018-04-22T16:03:29.637Z,100789.66
2018-04-22T16:05:55.441Z,100785.00
2018-04-22T16:08:21.258Z,100771.11
2018-04-22T16:10:47.089Z,100778.23
2018-04-22T16:13:12.898Z,100777.95
2018-04-22T16:15:38.767Z,100775.99
2018-04-22T16:18:04.572Z,100773.77
2018-04-22T16:20:30.407Z,100781.53
2018-04-22T16:22:56.216Z,100781.48
2018-04-22T16:25:22.028Z,100778.08
2018-04-22T16:27:47.829Z,100775.09
2018-04-22T16:30:13.643Z,100773.58
2018-04-22T16:32:39.453Z,100780.31
2018-04-22T16:35:05.252Z,100777.17
2018-04-22T16:37:31.056Z,100773.69
2018-04-22T16:39:56.859Z,100772.78
2018-04-22T16:42:23.633Z,100773.20
2018-04-22T16:44:49.466Z,100777.81
2018-04-22T16:47:15.272Z,100781.13
2018-04-22T16:49:41.079Z,100786.59
2018-04-22T16:52:06.906Z,100778.38
2018-04-22T16:54:32.711Z,100770.46
2018-04-22T16:56:58.520Z,100771.75
2018-04-22T16:59:24.328Z,100770.01
2018-04-22T17:01:50.203Z,100774.33
2018-04-22T17:04:16.034Z,100767.47
2018-04-22T17:06:41.905Z,100775.42
2018-04-22T17:09:07.713Z,100770.12
2018-04-22T17:11:33.522Z,100766.70
2018-04-22T17:13:59.330Z,100769.70
2018-04-22T17:16:25.177Z,100767.05
2018-04-22T17:18:50.977Z,100765.94
2018-04-22T17:21:16.779Z,100765.73
2018-04-22T17:23:42.588Z,100765.31
2018-04-22T17:26:08.428Z,100761.97
2018-04-22T17:28:34.276Z,100758.03
2018-04-22T17:31:00.098Z,100761.55
2018-04-22T17:33:25.904Z,100755.47
2018-04-22T17:35:51.717Z,100755.03
2018-04-22T17:38:17.529Z,100756.95
2018-04-22T17:40:43.350Z,100756.55
2018-04-22T17:43:09.200Z,100755.05
2018-04-22T17:45:35.015Z,100754.14
2018-04-22T17:48:00.849Z,100751.58
2018-04-22T17:50:26.651Z,100757.22
2018-04-22T17:52:52.499Z,100751.80
2018-04-22T17:55:18.312Z,100750.41
2018-04-22T17:57:44.124Z,100741.24
2018-04-22T18:00:09.941Z,100748.32
2018-04-22T18:02:35.750Z,100749.27
2018-04-22T18:05:01.570Z,100750.33
2018-04-22T18:07:27.497Z,100751.42
2018-04-22T18:09:53.299Z,100760.59
2018-04-22T18:12:19.113Z,100754.30
2018-04-22T18:14:44.961Z,100757.56
2018-04-22T18:17:10.780Z,100758.54
2018-04-22T18:19:36.592Z,100758.54
2018-04-22T18:22:02.395Z,100754.64
2018-04-22T18:24:28.235Z,100752.06
2018-04-22T18:26:54.074Z,100753.95
2018-04-22T18:29:20.123Z,100751.41
2018-04-22T18:31:45.972Z,100747.44
2018-04-22T18:34:11.787Z,100740.89
2018-04-22T18:36:38.664Z,100742.36
2018-04-22T18:39:04.486Z,100739.47
2018-04-22T18:41:31.307Z,100741.85
2018-04-22T18:43:57.114Z,100747.68
2018-04-22T18:46:22.950Z,100748.81
2018-04-22T18:48:48.777Z,100743.09
2018-04-22T18:51:14.642Z,100750.20
2018-04-22T18:53:40.481Z,100748.16
2018-04-22T18:56:06.317Z,100751.30
2018-04-22T18:58:32.119Z,100745.39
2018-04-22T19:00:57.957Z,100751.30
2018-04-22T19:03:23.793Z,100747.89
2018-04-22T19:05:49.641Z,100745.92
2018-04-22T19:08:15.452Z,100753.38
2018-04-22T19:10:41.270Z,100740.42
2018-04-22T19:13:07.084Z,100737.44
2018-04-22T19:15:32.928Z,100737.55
2018-04-22T19:17:58.742Z,100734.63
2018-04-22T19:20:24.552Z,100735.31
2018-04-22T19:22:50.471Z,100735.73
2018-04-22T19:25:16.295Z,100738.03
2018-04-22T19:27:42.109Z,100738.95
2018-04-22T19:30:07.916Z,100732.39
2018-04-22T19:32:33.861Z,100726.53
2018-04-22T19:34:59.665Z,100728.69
2018-04-22T19:37:25.606Z,100726.61
2018-04-22T19:39:51.412Z,100730.81
2018-04-22T19:42:17.220Z,100727.67
2018-04-22T19:44:43.031Z,100721.95
2018-04-22T19:47:08.872Z,100722.00
2018-04-22T19:49:34.701Z,100722.23
2018-04-22T19:52:00.511Z,100718.88
2018-04-22T19:54:26.361Z,100715.59
2018-04-22T19:56:52.175Z,100715.25
2018-04-22T19:59:18.025Z,100713.93
2018-04-22T20:01:43.840Z,100715.52
2018-04-22T20:04:09.648Z,100716.09
2018-04-22T20:06:35.454Z,100710.70
2018-04-22T20:09:01.267Z,100710.94
2018-04-22T20:11:27.075Z,100707.72
2018-04-22T20:13:52.879Z,100707.30
2018-04-22T20:16:18.714Z,100707.72
2018-04-22T20:18:44.517Z,100704.44
2018-04-22T20:21:10.426Z,100703.34
2018-04-22T20:23:36.192Z,100706.74
2018-04-22T20:26:02.001Z,100710.72
2018-04-22T20:28:27.809Z,100710.30
2018-04-22T20:30:53.700Z,100710.45
2018-04-22T20:33:19.625Z,100711.20
2018-04-22T20:35:45.590Z,100714.05
2018-04-22T20:38:11.396Z,100710.56
2018-04-22T20:40:37.199Z,100705.52
2018-04-22T20:43:03.005Z,100710.09
2018-04-22T20:45:28.807Z,100709.69
2018-04-22T20:47:54.618Z,100711.92
2018-04-22T20:50:20.600Z,100706.05
2018-04-22T20:52:46.413Z,100706.39
2018-04-22T20:55:12.216Z,100705.19
2018-04-22T20:57:38.057Z,100704.42
2018-04-22T21:00:03.990Z,100707.50
2018-04-22T21:02:29.817Z,100699.84
2018-04-22T21:04:55.732Z,100705.27
2018-04-22T21:07:21.546Z,100703.41
2018-04-22T21:09:47.534Z,100699.55
2018-04-22T21:12:13.336Z,100705.67
2018-04-22T21:14:39.177Z,100702.84
2018-04-22T21:17:04.989Z,100702.42
2018-04-22T21:19:30.797Z,100697.69
2018-04-22T21:21:56.676Z,100694.06
2018-04-22T21:24:22.556Z,100694.73
2018-04-22T21:26:48.361Z,100689.66
2018-04-22T21:29:14.434Z,100698.37
2018-04-22T21:31:40.356Z,100691.74
2018-04-22T21:34:06.169Z,100688.91
2018-04-22T21:36:31.989Z,100694.84
2018-04-22T21:38:57.798Z,100737.12
2018-04-22T21:41:23.609Z,100834.01
2018-04-22T21:43:49.449Z,100840.00
2018-04-22T21:46:15.255Z,100769.84
2018-04-22T21:48:41.089Z,100788.68
2018-04-22T21:51:07.125Z,100800.81
2018-04-22T21:53:32.989Z,100797.52
2018-04-22T21:55:58.858Z,100797.59
2018-04-22T21:58:24.678Z,100801.80
2018-04-22T22:00:50.490Z,100789.11
2018-04-22T22:03:16.292Z,100783.31
2018-04-22T22:05:42.277Z,100777.45
2018-04-22T22:08:08.080Z,100779.83
2018-04-22T22:10:33.917Z,100779.38
2018-04-22T22:12:59.756Z,100783.02
2018-04-22T22:15:25.579Z,100781.77
2018-04-22T22:17:52.354Z,100780.19
2018-04-22T22:20:18.156Z,100785.58
2018-04-22T22:22:43.956Z,100780.00
2018-04-22T22:25:09.757Z,100773.27
2018-04-22T22:27:35.564Z,100781.30
2018-04-22T22:30:01.370Z,100770.70
2018-04-22T22:32:27.287Z,100770.78
2018-04-22T22:34:53.084Z,100758.02
2018-04-22T22:37:18.929Z,100751.80
2018-04-22T22:39:44.741Z,100736.16
2018-04-22T22:42:10.550Z,100727.03
2018-04-22T22:44:36.436Z,100717.11
2018-04-22T22:47:02.276Z,100720.25
2018-04-22T22:49:28.168Z,100717.19
2018-04-22T22:51:53.977Z,100710.14
2018-04-22T22:54:19.866Z,100708.52
2018-04-22T22:56:45.693Z,100694.42
2018-04-22T22:59:11.500Z,100672.12
2018-04-22T23:01:37.337Z,100667.23
2018-04-22T23:04:03.141Z,100673.22
2018-04-22T23:06:28.950Z,100661.37
2018-04-22T23:08:54.752Z,100651.03
2018-04-22T23:11:20.556Z,100653.68
2018-04-22T23:13:46.361Z,100678.02
2018-04-22T23:16:12.188Z,100677.49
2018-04-22T23:18:37.992Z,100672.38
2018-04-22T23:21:03.792Z,100670.45
2018-04-22T23:23:29.598Z,100675.67
2018-04-22T23:25:55.404Z,100664.16
2018-04-22T23:28:21.236Z,100659.20
2018-04-22T23:30:47.058Z,100663.33
2018-04-22T23:33:12.896Z,100660.19
2018-04-22T23:35:38.701Z,100688.02
2018-04-22T23:38:04.505Z,100697.22
2018-04-22T23:40:30.300Z,100705.45
2018-04-22T23:42:57.294Z,100693.17
2018-04-22T23:45:23.103Z,100694.30
2018-04-22T23:47:48.937Z,100688.09
2018-04-22T23:50:14.743Z,100687.27
2018-04-22T23:52:40.589Z,100685.15
2018-04-22T23:55:06.392Z,100680.75
2018-04-22T23:57:32.288Z,100671.48
2018-04-22T23:59:58.090Z,100668.56
